createdAt,value
2022-10-11T00:00:35.320Z,7.82
2022-10-11T00:03:02.047Z,7.63
2022-10-11T00:05:28.763Z,7.32
2022-10-11T00:07:55.410Z,8.52
2022-10-11T00:10:22.055Z,9.93
2022-10-11T00:12:48.751Z,11.23
2022-10-11T00:15:17.565Z,6.88
2022-10-11T00:17:44.213Z,7.00
2022-10-11T00:20:11.311Z,6.40
2022-10-11T00:22:38.087Z,6.95
2022-10-11T00:25:06.471Z,8.35
2022-10-11T00:27:33.734Z,8.32
2022-10-11T00:30:00.398Z,7.03
2022-10-11T00:32:27.459Z,7.97
2022-10-11T00:34:54.058Z,9.15
2022-10-11T00:37:20.664Z,4.90
2022-10-11T00:39:47.274Z,6.47
2022-10-11T00:42:14.821Z,6.40
2022-10-11T00:44:45.326Z,7.07
2022-10-11T00:47:15.377Z,5.32
2022-10-11T00:49:44.424Z,6.25
2022-10-11T00:52:15.398Z,12.60
2022-10-11T00:54:43.127Z,6.00
2022-10-11T00:57:12.038Z,8.75
2022-10-11T00:59:41.521Z,7.00
2022-10-11T01:02:08.471Z,7.95
2022-10-11T01:04:35.090Z,6.45
2022-10-11T01:07:02.013Z,9.18
2022-10-11T01:09:28.769Z,8.15
2022-10-11T01:11:57.210Z,9.38
2022-10-11T01:14:36.316Z,9.00
2022-10-11T01:17:27.500Z,9.02
2022-10-11T01:20:18.730Z,7.43
2022-10-11T01:23:07.784Z,11.98
2022-10-11T01:26:03.520Z,6.85
2022-10-11T01:31:34.794Z,9.73
2022-10-11T01:34:05.586Z,7.93
2022-10-11T01:36:34.448Z,7.70
2022-10-11T01:39:10.048Z,7.32
2022-10-11T01:41:41.173Z,10.13
2022-10-11T01:44:07.762Z,7.65
2022-10-11T01:46:34.544Z,5.72
2022-10-11T01:49:01.532Z,7.43
2022-10-11T01:51:31.508Z,7.13
2022-10-11T01:54:04.346Z,5.70
2022-10-11T01:56:45.740Z,5.53
2022-10-11T01:59:20.943Z,7.95
2022-10-11T02:01:56.387Z,7.90
2022-10-11T02:04:31.843Z,5.22
2022-10-11T02:07:01.319Z,8.85
2022-10-11T02:09:36.239Z,7.10
2022-10-11T02:12:06.038Z,6.30
2022-10-11T02:14:35.181Z,6.18
2022-10-11T02:17:07.423Z,5.65
2022-10-11T02:19:38.530Z,10.82
2022-10-11T02:22:10.217Z,6.22
2022-10-11T02:24:38.173Z,5.80
2022-10-11T02:27:04.767Z,5.97
2022-10-11T02:29:33.214Z,6.63
2022-10-11T02:32:00.510Z,8.85
2022-10-11T02:34:31.411Z,11.00
2022-10-11T02:37:19.936Z,8.18
2022-10-11T02:40:07.683Z,7.07
2022-10-11T02:42:37.406Z,8.68
2022-10-11T02:45:07.886Z,9.57
2022-10-11T02:47:34.495Z,8.68
2022-10-11T02:50:01.103Z,8.60
2022-10-11T02:52:28.026Z,10.13
2022-10-11T02:54:54.647Z,14.27
2022-10-11T02:57:21.271Z,7.22
2022-10-11T02:59:47.846Z,8.43
2022-10-11T03:02:14.518Z,16.67
2022-10-11T03:04:41.133Z,12.23
2022-10-11T03:07:07.734Z,11.50
2022-10-11T03:09:34.294Z,5.60
2022-10-11T03:12:00.867Z,11.57
2022-10-11T03:14:27.477Z,7.38
2022-10-11T03:16:54.089Z,10.82
2022-10-11T03:19:20.672Z,10.38
2022-10-11T03:21:47.320Z,9.80
2022-10-11T03:24:13.898Z,8.60
2022-10-11T03:26:40.507Z,10.35
2022-10-11T03:29:07.180Z,12.15
2022-10-11T03:31:33.778Z,8.65
2022-10-11T03:34:00.337Z,9.82
2022-10-11T03:36:26.955Z,6.82
2022-10-11T03:38:53.542Z,7.63
2022-10-11T03:41:20.135Z,7.50
2022-10-11T03:43:46.802Z,8.82
2022-10-11T03:46:13.423Z,7.55
2022-10-11T03:48:40.017Z,12.73
2022-10-11T03:51:06.687Z,9.23
2022-10-11T03:53:33.374Z,12.38
2022-10-11T03:56:02.419Z,7.90
2022-10-11T03:58:31.213Z,8.90
2022-10-11T04:00:57.883Z,9.20
2022-10-11T04:03:24.469Z,5.32
2022-10-11T04:05:51.133Z,5.60
2022-10-11T04:08:18.029Z,6.55
2022-10-11T04:10:44.642Z,8.80
2022-10-11T04:13:11.666Z,5.50
2022-10-11T04:15:38.630Z,6.18
2022-10-11T04:18:05.948Z,10.15
2022-10-11T04:20:32.594Z,10.00
2022-10-11T04:22:59.191Z,5.32
2022-10-11T04:25:25.855Z,7.97
2022-10-11T04:27:52.512Z,8.45
2022-10-11T04:30:19.691Z,8.38
2022-10-11T04:32:46.270Z,6.57
2022-10-11T04:35:12.882Z,8.60
2022-10-11T04:37:39.495Z,8.57
2022-10-11T04:40:07.283Z,8.63
2022-10-11T04:42:34.031Z,6.22
2022-10-11T04:45:00.642Z,12.35
2022-10-11T04:47:27.264Z,10.77
2022-10-11T04:49:53.846Z,10.60
2022-10-11T04:52:25.380Z,6.13
2022-10-11T04:54:52.477Z,11.10
2022-10-11T04:57:19.043Z,8.63
2022-10-11T04:59:50.020Z,8.23
2022-10-11T05:02:16.927Z,6.80
2022-10-11T05:04:43.681Z,10.90
2022-10-11T05:07:10.248Z,9.30
2022-10-11T05:09:36.917Z,6.57
2022-10-11T05:12:04.183Z,8.38
2022-10-11T05:14:30.833Z,6.40
2022-10-11T05:16:57.571Z,6.72
2022-10-11T05:19:24.244Z,6.40
2022-10-11T05:21:50.914Z,7.57
2022-10-11T05:24:17.530Z,8.40
2022-10-11T05:26:44.145Z,6.43
2022-10-11T05:29:10.761Z,9.00
2022-10-11T05:31:37.376Z,9.27
2022-10-11T05:34:03.991Z,12.43
2022-10-11T05:36:30.564Z,8.73
2022-10-11T05:38:57.310Z,11.25
2022-10-11T05:41:23.906Z,8.30
2022-10-11T05:43:50.510Z,10.15
2022-10-11T05:46:17.108Z,12.95
2022-10-11T05:48:43.698Z,8.93
2022-10-11T05:51:11.017Z,13.63
2022-10-11T05:53:38.200Z,10.60
2022-10-11T05:56:05.577Z,12.40
2022-10-11T05:58:32.425Z,9.02
2022-10-11T06:00:59.104Z,14.90
2022-10-11T06:03:25.816Z,8.82
2022-10-11T06:05:56.775Z,8.27
2022-10-11T06:08:23.850Z,9.35
2022-10-11T06:10:50.465Z,10.00
2022-10-11T06:13:17.203Z,9.73
2022-10-11T06:15:44.189Z,8.23
2022-10-11T06:18:10.949Z,10.73
2022-10-11T06:20:37.624Z,8.02
2022-10-11T06:23:04.265Z,10.68
2022-10-11T06:25:31.089Z,11.55
2022-10-11T06:27:57.729Z,7.28
2022-10-11T06:30:24.590Z,8.68
2022-10-11T06:32:51.419Z,9.90
2022-10-11T06:35:18.069Z,9.45
2022-10-11T06:37:44.757Z,17.38
2022-10-11T06:40:11.761Z,8.02
2022-10-11T06:42:38.448Z,11.98
2022-10-11T06:45:05.823Z,9.05
2022-10-11T06:47:32.454Z,12.18
2022-10-11T06:49:59.048Z,12.45
2022-10-11T06:52:25.764Z,8.15
2022-10-11T06:54:52.436Z,11.70
2022-10-11T06:57:19.242Z,7.78
2022-10-11T06:59:45.830Z,9.52
2022-10-11T07:02:12.422Z,10.38
2022-10-11T07:04:39.281Z,8.50
2022-10-11T07:07:05.923Z,12.45
2022-10-11T07:09:34.111Z,13.63
2022-10-11T07:12:00.697Z,9.77
2022-10-11T07:14:27.399Z,10.20
2022-10-11T07:16:53.992Z,7.32
2022-10-11T07:19:20.707Z,12.15
2022-10-11T07:21:47.348Z,9.13
2022-10-11T07:24:14.162Z,8.55
2022-10-11T07:26:40.831Z,10.20
2022-10-11T07:29:08.027Z,11.25
2022-10-11T07:31:34.755Z,7.30
2022-10-11T07:34:01.341Z,8.40
2022-10-11T07:36:27.937Z,8.23
2022-10-11T07:38:55.321Z,14.35
2022-10-11T07:41:21.979Z,10.07
2022-10-11T07:43:49.595Z,7.95
2022-10-11T07:46:17.237Z,6.22
2022-10-11T07:48:43.900Z,9.02
2022-10-11T07:51:13.630Z,11.50
2022-10-11T07:53:41.621Z,13.65
2022-10-11T07:56:09.345Z,11.07
2022-10-11T07:58:36.191Z,10.10
2022-10-11T08:01:03.005Z,5.88
2022-10-11T08:03:29.868Z,19.25
2022-10-11T08:06:01.435Z,11.82
2022-10-11T08:08:28.436Z,7.68
2022-10-11T08:10:55.407Z,10.93
2022-10-11T08:13:22.002Z,6.53
2022-10-11T08:15:48.640Z,11.93
2022-10-11T08:18:15.274Z,12.23
2022-10-11T08:20:41.972Z,13.00
2022-10-11T08:23:09.389Z,7.75
2022-10-11T08:25:38.069Z,14.88
2022-10-11T08:28:04.894Z,8.93
2022-10-11T08:30:31.701Z,10.35
2022-10-11T08:32:58.468Z,9.48
2022-10-11T08:35:25.094Z,9.90
2022-10-11T08:37:51.736Z,9.07
2022-10-11T08:40:19.623Z,8.02
2022-10-11T08:42:49.046Z,14.65
2022-10-11T08:45:34.977Z,7.47
2022-10-11T08:48:11.412Z,11.13
2022-10-11T08:50:38.052Z,14.07
2022-10-11T08:53:24.166Z,7.35
2022-10-11T08:55:51.229Z,9.45
2022-10-11T08:58:20.886Z,8.32
2022-10-11T09:00:48.363Z,8.15
2022-10-11T09:03:39.643Z,6.63
2022-10-11T09:06:14.324Z,6.07
2022-10-11T09:11:56.803Z,6.85
2022-10-11T09:14:47.021Z,10.07
2022-10-11T09:23:13.979Z,12.02
2022-10-11T09:25:49.628Z,13.73
2022-10-11T09:28:40.016Z,10.77
2022-10-11T09:31:09.155Z,20.75
2022-10-11T09:33:38.995Z,10.18
2022-10-11T09:36:32.789Z,8.75
2022-10-11T09:39:24.113Z,12.32
2022-10-11T09:42:08.715Z,7.18
2022-10-11T09:44:40.527Z,10.63
2022-10-11T09:47:07.798Z,12.90
2022-10-11T09:49:39.944Z,16.40
2022-10-11T09:52:11.160Z,12.63
2022-10-11T09:54:39.548Z,8.07
2022-10-11T09:57:06.872Z,8.52
2022-10-11T09:59:34.574Z,9.18
2022-10-11T10:08:11.865Z,13.98
2022-10-11T10:10:40.997Z,9.57
2022-10-11T10:13:27.729Z,9.35
2022-10-11T10:15:56.448Z,10.52
2022-10-11T10:18:24.838Z,9.82
2022-10-11T10:20:53.463Z,11.18
2022-10-11T10:23:25.129Z,8.55
2022-10-11T10:25:52.119Z,13.23
2022-10-11T10:28:23.157Z,10.55
2022-10-11T10:30:55.122Z,10.02
2022-10-11T10:33:23.155Z,14.23
2022-10-11T10:36:09.389Z,13.80
2022-10-11T10:38:40.625Z,11.35
2022-10-11T10:41:11.671Z,10.02
2022-10-11T10:43:40.165Z,10.40
2022-10-11T10:46:46.649Z,16.70
2022-10-11T10:49:51.922Z,13.02
2022-10-11T10:52:36.091Z,12.75
2022-10-11T10:58:46.538Z,12.15
2022-10-11T11:01:33.707Z,10.30
2022-10-11T11:04:35.662Z,11.10
2022-10-11T11:07:25.960Z,9.55
2022-10-11T11:10:01.189Z,10.63
2022-10-11T11:12:48.438Z,17.05
2022-10-11T11:15:35.586Z,10.40
2022-10-11T11:18:28.429Z,11.75
2022-10-11T11:21:36.787Z,10.32
2022-10-11T11:24:31.529Z,9.80
2022-10-11T11:30:14.411Z,13.38
2022-10-11T11:35:50.116Z,7.50
2022-10-11T11:40:58.194Z,15.27
2022-10-11T11:43:35.246Z,10.30
2022-10-11T11:46:09.560Z,11.30
2022-10-11T11:48:36.268Z,11.85
2022-10-11T11:51:27.760Z,9.57
2022-10-11T11:54:22.247Z,13.77
2022-10-11T11:57:17.357Z,15.60
2022-10-11T12:00:08.527Z,7.90
2022-10-11T12:02:43.102Z,9.68
2022-10-11T12:05:10.613Z,10.40
2022-10-11T12:07:58.605Z,12.18
2022-10-11T12:10:30.284Z,7.40
2022-10-11T12:16:12.852Z,13.63
2022-10-11T12:19:00.240Z,9.30
2022-10-11T12:21:34.959Z,16.45
2022-10-11T12:24:22.517Z,14.45
2022-10-11T12:26:57.964Z,11.30
2022-10-11T12:29:46.818Z,12.45
2022-10-11T12:35:35.574Z,14.48
2022-10-11T12:38:10.604Z,10.02
2022-10-11T12:40:42.347Z,13.60
2022-10-11T12:45:57.513Z,9.48
2022-10-11T12:48:45.070Z,9.30
2022-10-11T12:51:35.465Z,7.53
2022-10-11T12:57:32.556Z,7.32
2022-10-11T13:00:31.131Z,9.32
2022-10-11T13:02:58.872Z,12.73
2022-10-11T13:05:27.385Z,12.02
2022-10-11T13:07:55.372Z,10.15
2022-10-11T13:10:27.392Z,15.65
2022-10-11T13:12:54.192Z,9.35
2022-10-11T13:15:21.821Z,13.93
2022-10-11T13:17:51.673Z,8.55
2022-10-11T13:20:21.344Z,17.77
2022-10-11T13:22:49.751Z,14.50
2022-10-11T13:25:19.351Z,9.65
2022-10-11T13:27:46.047Z,12.15
2022-10-11T13:30:19.904Z,11.55
2022-10-11T13:32:46.717Z,8.05
2022-10-11T13:35:23.834Z,14.15
2022-10-11T13:37:51.441Z,17.17
2022-10-11T13:40:19.388Z,12.00
2022-10-11T13:42:46.157Z,14.93
2022-10-11T13:45:13.617Z,13.68
2022-10-11T13:47:40.248Z,13.38
2022-10-11T13:50:31.656Z,14.25
2022-10-11T13:53:04.520Z,11.85
2022-10-11T13:55:36.621Z,13.43
2022-10-11T13:58:09.409Z,12.50
2022-10-11T14:00:38.133Z,13.57
2022-10-11T14:03:17.100Z,17.42
2022-10-11T14:05:51.509Z,8.55
2022-10-11T14:08:39.326Z,9.90
2022-10-11T14:11:06.981Z,8.75
2022-10-11T14:13:42.248Z,9.05
2022-10-11T14:16:13.982Z,10.68
2022-10-11T14:18:44.209Z,10.70
2022-10-11T14:21:23.800Z,11.23
2022-10-11T14:23:51.785Z,9.20
2022-10-11T14:26:19.101Z,18.95
2022-10-11T14:28:46.445Z,15.98
2022-10-11T14:31:13.091Z,23.17
2022-10-11T14:33:39.660Z,11.15
2022-10-11T14:36:06.897Z,10.35
2022-10-11T14:38:33.761Z,13.57
2022-10-11T14:41:00.396Z,9.48
2022-10-11T14:43:27.007Z,14.10
2022-10-11T14:45:53.762Z,12.20
2022-10-11T14:48:43.171Z,14.07
2022-10-11T14:51:07.098Z,14.57
2022-10-11T14:53:36.354Z,12.30
2022-10-11T14:56:07.364Z,11.35
2022-10-11T14:58:34.133Z,20.88
2022-10-11T15:01:00.701Z,14.52
2022-10-11T15:03:27.353Z,16.02
2022-10-11T15:05:53.986Z,15.98
2022-10-11T15:08:20.558Z,15.77
2022-10-11T15:10:47.168Z,8.80
2022-10-11T15:13:16.150Z,11.90
2022-10-11T15:15:42.771Z,16.50
2022-10-11T15:18:12.321Z,11.05
2022-10-11T15:20:40.709Z,19.30
2022-10-11T15:23:09.337Z,16.42
2022-10-11T15:25:36.080Z,12.75
2022-10-11T15:28:02.715Z,11.18
2022-10-11T15:30:31.246Z,28.65
2022-10-11T15:32:57.944Z,14.30
2022-10-11T15:35:24.926Z,14.63
2022-10-11T15:37:53.497Z,15.35
2022-10-11T15:40:22.687Z,13.60
2022-10-11T15:42:49.870Z,16.27
2022-10-11T15:45:17.185Z,14.88
2022-10-11T15:47:44.044Z,11.25
2022-10-11T15:50:15.252Z,14.57
2022-10-11T15:52:41.939Z,12.90
2022-10-11T15:55:08.617Z,12.93
2022-10-11T15:57:35.211Z,12.85
2022-10-11T16:00:01.878Z,9.25
2022-10-11T16:02:28.722Z,10.07
2022-10-11T16:04:55.448Z,13.98
2022-10-11T16:07:22.047Z,12.05
2022-10-11T16:09:48.633Z,13.40
2022-10-11T16:12:15.214Z,12.38
2022-10-11T16:14:46.971Z,13.73
2022-10-11T16:17:13.898Z,8.88
2022-10-11T16:19:40.585Z,10.68
2022-10-11T16:22:07.244Z,11.80
2022-10-11T16:24:33.896Z,12.88
2022-10-11T16:27:01.044Z,13.77
2022-10-11T16:29:27.919Z,10.50
2022-10-11T16:31:54.702Z,20.23
2022-10-11T16:34:21.312Z,11.05
2022-10-11T16:36:47.984Z,17.45
2022-10-11T16:39:16.832Z,13.40
2022-10-11T16:41:43.580Z,14.60
2022-10-11T16:44:13.288Z,14.13
2022-10-11T16:46:39.910Z,11.85
2022-10-11T16:49:06.673Z,16.17
2022-10-11T16:51:33.393Z,17.88
2022-10-11T16:54:00.630Z,14.93
2022-10-11T16:56:27.501Z,15.23
2022-10-11T16:58:54.336Z,16.55
2022-10-11T17:01:21.115Z,17.50
2022-10-11T17:03:49.375Z,19.08
2022-10-11T17:06:15.996Z,14.90
2022-10-11T17:08:42.664Z,13.13
2022-10-11T17:11:09.337Z,18.67
2022-10-11T17:13:35.995Z,15.18
2022-10-11T17:16:02.898Z,16.95
2022-10-11T17:18:29.758Z,14.88
2022-10-11T17:21:05.845Z,14.90
2022-10-11T17:23:33.883Z,15.90
2022-10-11T17:26:04.400Z,21.00
2022-10-11T17:28:34.890Z,20.83
2022-10-11T17:31:01.638Z,13.68
2022-10-11T17:33:28.276Z,13.13
2022-10-11T17:35:55.364Z,16.85
2022-10-11T17:38:26.150Z,16.58
2022-10-11T17:41:08.646Z,20.50
2022-10-11T17:43:35.574Z,16.30
2022-10-11T17:46:05.962Z,14.18
2022-10-11T17:48:34.509Z,17.75
2022-10-11T17:51:07.607Z,16.83
2022-10-11T17:53:34.649Z,14.05
2022-10-11T17:56:04.909Z,20.85
2022-10-11T17:58:31.798Z,20.17
2022-10-11T18:01:04.363Z,28.60
2022-10-11T18:03:31.334Z,18.10
2022-10-11T18:05:58.041Z,20.08
2022-10-11T18:08:24.699Z,20.27
2022-10-11T18:10:51.331Z,29.75
2022-10-11T18:13:18.013Z,29.55
2022-10-11T18:15:44.727Z,27.40
2022-10-11T18:18:11.696Z,17.85
2022-10-11T18:20:38.312Z,19.38
2022-10-11T18:23:04.964Z,28.90
2022-10-11T18:25:33.451Z,24.63
2022-10-11T18:28:00.052Z,28.17
2022-10-11T18:30:26.724Z,19.75
2022-10-11T18:32:53.371Z,19.88
2022-10-11T18:35:19.977Z,25.13
2022-10-11T18:37:46.598Z,21.85
2022-10-11T18:40:13.260Z,26.63
2022-10-11T18:42:39.907Z,21.95
2022-10-11T18:45:07.201Z,23.95
2022-10-11T18:47:33.806Z,22.60
2022-10-11T18:50:00.416Z,24.45
2022-10-11T18:52:27.006Z,23.08
2022-10-11T18:54:53.685Z,24.08
2022-10-11T18:57:20.304Z,24.25
2022-10-11T18:59:46.960Z,24.20
2022-10-11T19:02:13.535Z,22.15
2022-10-11T19:04:40.235Z,27.52
2022-10-11T19:07:06.856Z,22.80
2022-10-11T19:09:33.464Z,26.92
2022-10-11T19:12:00.134Z,22.83
2022-10-11T19:14:28.610Z,24.10
2022-10-11T19:16:55.433Z,21.02
2022-10-11T19:19:24.559Z,20.42
2022-10-11T19:21:51.744Z,22.20
2022-10-11T19:24:20.185Z,26.73
2022-10-11T19:26:46.968Z,23.23
2022-10-11T19:29:15.376Z,20.02
2022-10-11T19:31:43.601Z,21.88
2022-10-11T19:34:10.364Z,19.75
2022-10-11T19:36:37.427Z,25.67
2022-10-11T19:39:04.839Z,20.60
2022-10-11T19:41:31.642Z,20.88
2022-10-11T19:43:58.267Z,23.17
2022-10-11T19:46:44.848Z,29.90
2022-10-11T19:49:13.887Z,27.27
2022-10-11T19:51:40.573Z,21.52
2022-10-11T19:54:09.748Z,19.13
2022-10-11T19:56:36.521Z,22.10
2022-10-11T19:59:03.163Z,24.98
2022-10-11T20:01:30.689Z,21.55
2022-10-11T20:03:59.829Z,20.27
2022-10-11T20:06:27.680Z,24.13
2022-10-11T20:09:16.669Z,27.00
2022-10-11T20:11:41.273Z,24.27
2022-10-11T20:14:08.666Z,18.65
2022-10-11T20:16:35.410Z,25.70
2022-10-11T20:19:02.081Z,28.80
2022-10-11T20:21:29.672Z,25.15
2022-10-11T20:23:58.638Z,23.00
2022-10-11T20:26:25.489Z,21.65
2022-10-11T20:28:55.940Z,21.27
2022-10-11T20:31:26.218Z,22.67
2022-10-11T20:33:55.791Z,35.95
2022-10-11T20:36:22.618Z,26.77
2022-10-11T20:38:49.635Z,20.13
2022-10-11T20:41:18.299Z,25.58
2022-10-11T20:43:45.679Z,32.08
2022-10-11T20:46:14.245Z,24.55
2022-10-11T20:48:41.131Z,26.80
2022-10-11T20:51:08.932Z,24.98
2022-10-11T20:53:36.254Z,25.17
2022-10-11T20:56:03.206Z,21.85
2022-10-11T20:58:29.816Z,21.98
2022-10-11T21:00:56.551Z,28.88
2022-10-11T21:03:23.157Z,23.13
2022-10-11T21:05:58.201Z,28.83
2022-10-11T21:08:24.854Z,27.00
2022-10-11T21:10:52.595Z,22.40
2022-10-11T21:13:19.264Z,27.80
2022-10-11T21:15:45.971Z,26.63
2022-10-11T21:18:13.014Z,21.75
2022-10-11T21:20:40.569Z,31.88
2022-10-11T21:23:07.349Z,26.35
2022-10-11T21:25:34.979Z,24.20
2022-10-11T21:28:01.764Z,26.42
2022-10-11T21:30:28.374Z,32.13
2022-10-11T21:32:57.299Z,31.05
2022-10-11T21:35:25.588Z,28.50
2022-10-11T21:37:52.192Z,32.95
2022-10-11T21:40:18.894Z,25.98
2022-10-11T21:42:45.655Z,32.35
2022-10-11T21:45:12.353Z,25.17
2022-10-11T21:47:39.532Z,22.48
2022-10-11T21:50:06.531Z,29.40
2022-10-11T21:52:33.391Z,24.75
2022-10-11T21:55:00.118Z,30.13
2022-10-11T21:57:26.688Z,24.65
2022-10-11T21:59:53.295Z,26.77
2022-10-11T22:02:19.872Z,28.10
2022-10-11T22:04:46.477Z,29.80
2022-10-11T22:07:13.118Z,30.90
2022-10-11T22:09:39.725Z,26.70
2022-10-11T22:12:06.512Z,29.80
2022-10-11T22:14:33.134Z,24.23
2022-10-11T22:16:59.716Z,32.28
2022-10-11T22:19:26.370Z,30.15
2022-10-11T22:21:53.133Z,30.75
2022-10-11T22:24:19.776Z,29.73
2022-10-11T22:26:46.460Z,31.42
2022-10-11T22:29:13.070Z,30.45
2022-10-11T22:31:39.724Z,27.90
2022-10-11T22:34:06.475Z,27.73
2022-10-11T22:36:33.740Z,30.38
2022-10-11T22:39:00.370Z,28.38
2022-10-11T22:41:27.054Z,28.02
2022-10-11T22:43:53.642Z,30.45
2022-10-11T22:46:20.251Z,23.33
2022-10-11T22:48:46.824Z,30.05
2022-10-11T22:51:14.313Z,27.40
2022-10-11T22:53:40.884Z,29.60
2022-10-11T22:56:08.731Z,31.85
2022-10-11T22:58:35.522Z,25.42
2022-10-11T23:01:10.146Z,31.63
2022-10-11T23:03:36.994Z,32.25
2022-10-11T23:06:03.914Z,28.55
2022-10-11T23:08:30.544Z,28.17
2022-10-11T23:10:57.139Z,34.50
2022-10-11T23:13:23.749Z,33.95
2022-10-11T23:15:50.404Z,34.78
2022-10-11T23:18:17.029Z,39.08
2022-10-11T23:20:43.634Z,31.45
2022-10-11T23:23:10.251Z,35.20
2022-10-11T23:25:36.843Z,31.42
2022-10-11T23:28:03.480Z,44.08
2022-10-11T23:30:30.109Z,37.42
2022-10-11T23:32:56.697Z,34.17
2022-10-11T23:35:23.346Z,35.35
2022-10-11T23:37:49.920Z,32.10
2022-10-11T23:40:16.576Z,29.60
2022-10-11T23:42:43.253Z,27.13
2022-10-11T23:45:10.214Z,33.28
2022-10-11T23:47:37.122Z,34.90
2022-10-11T23:50:04.344Z,34.97
2022-10-11T23:52:30.966Z,30.95
2022-10-11T23:54:57.561Z,28.50
2022-10-11T23:57:24.152Z,36.05
2022-10-11T23:59:50.731Z,34.60
